Time;durP1;ratioP1;P1;durP2;ratioP2;P2;SDS_P1;SDS_P2;PMS_P1;PMS_P2;Temp;Humidity;BMP_temperature;BMP_pressure;BME280_temperature;BME280_humidity;BME280_pressure;Samples;Min_cycle;Max_cycle;Signal;HPM_P1;HPM_P2
2022/12/17 13:08:23;;;;;;;;;;;;;;;-0.30;100.00;100772.13;5571178;32;34583;-71
2022/12/17 13:11:35;;;;;;;;;;;;;;;-0.23;100.00;100768.22;5570862;32;34317;-69
2022/12/17 13:14:51;;;;;;;;;;;;;;;-0.14;100.00;100769.44;5570705;32;34967;-70
2022/12/17 13:18:01;;;;;;;;;;;;;;;-0.22;100.00;100785.53;5570659;32;34170;-69
2022/12/17 13:21:17;;;;;;;;;;;;;;;-0.20;100.00;100790.66;5570773;32;34257;-70
2022/12/17 13:24:26;;;;;;;;;;;;;;;-0.32;100.00;100794.81;5570781;32;34962;-71
2022/12/17 13:27:33;;;;;;;;;;;;;;;-0.26;100.00;100804.91;5570639;32;34219;-69
2022/12/17 13:30:40;;;;;;;;;;;;;;;-0.12;100.00;100804.94;5570582;32;34676;-69
2022/12/17 13:34:10;;;;;;;;;;;;;;;-0.09;100.00;100822.16;5570629;32;34681;-71
2022/12/17 13:37:18;;;;;;;;;;;;;;;0.04;100.00;100815.31;5570393;32;34985;-70
2022/12/17 13:40:41;;;;;;;;;;;;;;;0.04;100.00;100809.25;5557565;32;34903;-70
2022/12/17 13:43:49;;;;;;;;;;;;;;;0.00;100.00;100832.06;5570412;32;34827;-72
2022/12/17 13:46:56;;;;;;;;;;;;;;;-0.01;100.00;100835.59;5570646;32;34811;-70
2022/12/17 13:50:03;;;;;;;;;;;;;;;-0.03;100.00;100850.50;5570597;32;34059;-70
2022/12/17 13:53:32;;;;;;;;;;;;;;;-0.16;100.00;100854.75;5570571;32;34938;-70
2022/12/17 13:56:40;;;;;;;;;;;;;;;-0.30;100.00;100846.87;5570422;32;33990;-70
2022/12/17 13:59:51;;;;;;;;;;;;;;;-0.28;100.00;100848.44;5570288;32;34302;-71
2022/12/17 14:03:08;;;;;;;;;;;;;;;-0.36;100.00;100857.63;5556372;32;34180;-70
2022/12/17 14:06:14;;;;;;;;;;;;;;;-0.43;100.00;100868.41;5556721;32;34808;-69
2022/12/17 14:09:21;;;;;;;;;;;;;;;-0.48;100.00;100862.59;5556909;32;34541;-70
2022/12/17 14:12:28;;;;;;;;;;;;;;;-0.44;100.00;100861.50;5570506;32;34718;-72
2022/12/17 14:15:36;;;;;;;;;;;;;;;-0.49;100.00;100870.53;5556436;32;34908;-71
2022/12/17 14:18:46;;;;;;;;;;;;;;;-0.53;100.00;100869.84;5570219;32;34245;-70
2022/12/17 14:21:55;;;;;;;;;;;;;;;-0.62;100.00;100890.34;5570245;32;35053;-72
2022/12/17 14:25:05;;;;;;;;;;;;;;;-0.76;100.00;100893.72;5570156;32;34336;-71
2022/12/17 14:28:21;;;;;;;;;;;;;;;-0.83;100.00;100910.63;5556808;32;34409;-72
2022/12/17 14:31:29;;;;;;;;;;;;;;;-0.82;100.00;100912.28;5570292;32;34602;-71
2022/12/17 14:34:41;;;;;;;;;;;;;;;-0.83;100.00;100915.84;5570193;32;34662;-70
2022/12/17 14:37:48;;;;;;;;;;;;;;;-0.87;100.00;100930.75;5570287;32;34333;-71
2022/12/17 14:40:59;;;;;;;;;;;;;;;-0.90;100.00;100912.72;5569807;32;35212;-70
2022/12/17 14:44:17;;;;;;;;;;;;;;;-0.93;100.00;100925.91;5555952;32;35534;-71
2022/12/17 14:47:25;;;;;;;;;;;;;;;-0.94;100.00;100939.00;5569955;32;34423;-70
2022/12/17 14:50:36;;;;;;;;;;;;;;;-0.99;100.00;100954.03;5569861;32;34675;-70
2022/12/17 14:53:41;;;;;;;;;;;;;;;-0.98;100.00;100950.50;5555516;32;34327;-70
2022/12/17 14:56:49;;;;;;;;;;;;;;;-1.01;100.00;100959.31;5570154;32;34177;-71
2022/12/17 14:59:55;;;;;;;;;;;;;;;-1.02;100.00;100955.03;5569739;32;34186;-71
2022/12/17 15:03:02;;;;;;;;;;;;;;;-0.98;100.00;100971.34;5569706;32;34582;-70
2022/12/17 15:06:12;;;;;;;;;;;;;;;-1.00;100.00;100970.56;5569805;32;34727;-71
2022/12/17 15:09:18;;;;;;;;;;;;;;;-1.09;100.00;100982.31;5569564;32;34875;-69
2022/12/17 15:12:27;;;;;;;;;;;;;;;-1.05;100.00;100967.34;5555853;32;34471;-71
2022/12/17 15:15:32;;;;;;;;;;;;;;;-1.08;100.00;100985.75;5555618;32;35200;-72
2022/12/17 15:18:40;;;;;;;;;;;;;;;-1.17;100.00;101004.44;5555438;32;35852;-71
2022/12/17 15:21:48;;;;;;;;;;;;;;;-1.19;100.00;101001.91;5555543;32;35707;-70
2022/12/17 15:24:57;;;;;;;;;;;;;;;-1.17;100.00;101005.28;5569500;32;34922;-70
2022/12/17 15:28:07;;;;;;;;;;;;;;;-1.22;100.00;101025.50;5555325;32;34354;-69
2022/12/17 15:31:14;;;;;;;;;;;;;;;-1.22;100.00;101038.53;5555978;32;35082;-69
2022/12/17 15:34:27;;;;;;;;;;;;;;;-1.23;100.00;101038.59;5569260;32;34265;-71
2022/12/17 15:37:34;;;;;;;;;;;;;;;-1.20;100.00;101041.03;5569079;32;34167;-72
2022/12/17 15:40:42;;;;;;;;;;;;;;;-1.29;100.00;101039.75;5568890;32;34244;-69
2022/12/17 15:43:49;;;;;;;;;;;;;;;-1.32;100.00;101040.75;5568722;31;34870;-70
2022/12/17 15:46:55;;;;;;;;;;;;;;;-1.32;100.00;101032.09;5569017;32;34333;-69
2022/12/17 15:50:02;;;;;;;;;;;;;;;-1.39;100.00;101039.34;5568934;32;34792;-70
2022/12/17 15:53:10;;;;;;;;;;;;;;;-1.43;100.00;101050.00;5568756;32;34305;-71
2022/12/17 15:56:22;;;;;;;;;;;;;;;-1.45;100.00;101044.84;5568820;32;34318;-70
2022/12/17 15:59:28;;;;;;;;;;;;;;;-1.42;100.00;101062.09;5568793;32;34584;-70
2022/12/17 16:02:32;;;;;;;;;;;;;;;-1.45;100.00;101050.06;5568772;32;34865;-68
2022/12/17 16:05:41;;;;;;;;;;;;;;;-1.45;100.00;101060.47;5570451;32;34293;-70
2022/12/17 16:08:47;;;;;;;;;;;;;;;-1.46;100.00;101051.00;5557569;32;34209;-71
2022/12/17 16:11:57;;;;;;;;;;;;;;;-1.45;100.00;101057.87;5571409;32;34396;-70
2022/12/17 16:15:02;;;;;;;;;;;;;;;-1.43;100.00;101058.62;5571275;32;34494;-69
2022/12/17 16:18:09;;;;;;;;;;;;;;;-1.41;100.00;101069.84;5571484;32;34701;-70
2022/12/17 16:21:15;;;;;;;;;;;;;;;-1.35;100.00;101079.06;5571370;32;34621;-70
2022/12/17 16:24:21;;;;;;;;;;;;;;;-1.41;100.00;101069.84;5571157;32;34959;-70
2022/12/17 16:27:26;;;;;;;;;;;;;;;-1.44;100.00;101079.53;5571189;32;34878;-70
2022/12/17 16:30:34;;;;;;;;;;;;;;;-1.43;100.00;101068.19;5571155;32;34796;-70
2022/12/17 16:33:41;;;;;;;;;;;;;;;-1.45;100.00;101088.25;5571102;32;34375;-70
2022/12/17 16:36:50;;;;;;;;;;;;;;;-1.47;100.00;101088.34;5571153;32;34080;-68
2022/12/17 16:39:59;;;;;;;;;;;;;;;-1.48;100.00;101104.00;5570949;32;34836;-70
2022/12/17 16:43:07;;;;;;;;;;;;;;;-1.53;100.00;101114.66;5570972;32;34249;-70
2022/12/17 16:46:28;;;;;;;;;;;;;;;-1.54;100.00;101131.16;5557252;32;35651;-69
2022/12/17 16:49:35;;;;;;;;;;;;;;;-1.54;100.00;101141.56;5557349;32;34919;-69
2022/12/17 16:52:40;;;;;;;;;;;;;;;-1.61;100.00;101141.94;5557533;32;35813;-70
2022/12/17 16:55:47;;;;;;;;;;;;;;;-1.65;100.00;101151.66;5570969;32;34840;-71
2022/12/17 16:58:54;;;;;;;;;;;;;;;-1.66;100.00;101162.97;5570989;32;34330;-71
2022/12/17 17:02:00;;;;;;;;;;;;;;;-1.55;100.00;101162.47;5570974;32;34708;-70
2022/12/17 17:05:06;;;;;;;;;;;;;;;-1.54;100.00;101174.56;5570956;32;35009;-72
2022/12/17 17:08:12;;;;;;;;;;;;;;;-1.63;100.00;101156.78;5570837;32;34552;-70
2022/12/17 17:11:20;;;;;;;;;;;;;;;-1.59;100.00;101179.13;5570816;32;34987;-70
2022/12/17 17:14:25;;;;;;;;;;;;;;;-1.69;100.00;101170.09;5556540;32;35039;-70
2022/12/17 17:17:32;;;;;;;;;;;;;;;-1.58;100.00;101171.25;5570611;32;34556;-69
2022/12/17 17:21:17;;;;;;;;;;;;;;;-1.61;100.00;101163.59;5570510;32;34312;-70
2022/12/17 17:24:24;;;;;;;;;;;;;;;-1.62;100.00;101187.09;5570795;32;34314;-69
2022/12/17 17:27:30;;;;;;;;;;;;;;;-1.71;100.00;101185.75;5570570;32;34812;-70
2022/12/17 17:30:38;;;;;;;;;;;;;;;-1.70;100.00;101195.25;5570277;32;34885;-69
2022/12/17 17:33:47;;;;;;;;;;;;;;;-1.69;100.00;101196.09;5570765;32;34867;-70
2022/12/17 17:36:52;;;;;;;;;;;;;;;-1.72;100.00;101199.66;5570791;32;34725;-69
2022/12/17 17:39:59;;;;;;;;;;;;;;;-1.73;100.00;101203.19;5544049;32;34396;-71
2022/12/17 17:43:06;;;;;;;;;;;;;;;-1.74;100.00;101208.47;5570341;32;34362;-70
2022/12/17 17:46:17;;;;;;;;;;;;;;;-1.80;100.00;101204.38;5556307;32;34844;-70
2022/12/17 17:49:22;;;;;;;;;;;;;;;-1.82;100.00;101211.41;5570200;32;34511;-70
2022/12/17 17:52:33;;;;;;;;;;;;;;;-1.84;100.00;101216.66;5570450;32;34856;-69
2022/12/17 17:55:41;;;;;;;;;;;;;;;-1.80;100.00;101223.44;5556518;32;34195;-69
2022/12/17 17:58:52;;;;;;;;;;;;;;;-1.75;100.00;101223.22;5570239;32;34886;-69
2022/12/17 18:01:57;;;;;;;;;;;;;;;-1.76;100.00;101217.19;5570428;32;34321;-71
2022/12/17 18:05:04;;;;;;;;;;;;;;;-1.77;100.00;101225.03;5557259;32;34299;-71
2022/12/17 18:08:12;;;;;;;;;;;;;;;-1.81;100.00;101228.69;5569837;32;34457;-70
2022/12/17 18:11:20;;;;;;;;;;;;;;;-1.79;100.00;101232.06;5569988;32;34813;-68
2022/12/17 18:14:28;;;;;;;;;;;;;;;-1.88;100.00;101237.66;5556482;32;32989;-70
2022/12/17 18:17:47;;;;;;;;;;;;;;;-1.94;100.00;101236.22;5558540;32;34246;-70
2022/12/17 18:21:07;;;;;;;;;;;;;;;-1.96;100.00;101237.16;5543752;32;35367;-71
2022/12/17 18:24:14;;;;;;;;;;;;;;;-1.92;100.00;101256.91;5570219;32;34242;-71
2022/12/17 18:27:19;;;;;;;;;;;;;;;-1.97;100.00;101271.88;5555411;32;32945;-70
2022/12/17 18:30:24;;;;;;;;;;;;;;;-1.89;100.00;101275.00;5569778;32;34865;-70
2022/12/17 18:33:32;;;;;;;;;;;;;;;-1.88;100.00;101282.72;5570062;32;34384;-70
2022/12/17 18:36:40;;;;;;;;;;;;;;;-1.91;100.00;101274.22;5556382;32;34336;-70
2022/12/17 18:39:47;;;;;;;;;;;;;;;-1.94;100.00;101288.22;5556031;32;34362;-71
2022/12/17 18:46:19;;;;;;;;;;;;;;;-1.99;100.00;101291.91;5550420;32;34845;-71
2022/12/17 18:49:27;;;;;;;;;;;;;;;-1.88;100.00;101308.72;5537442;32;34793;-70
2022/12/17 18:52:35;;;;;;;;;;;;;;;-2.06;100.00;101314.72;5536552;32;35264;-71
2022/12/17 18:55:43;;;;;;;;;;;;;;;-2.08;100.00;101316.53;5536506;32;32689;-71
2022/12/17 18:58:51;;;;;;;;;;;;;;;-2.14;100.00;101327.22;5550311;32;34834;-71
2022/12/17 19:01:59;;;;;;;;;;;;;;;-2.15;100.00;101342.84;5536478;32;34245;-71
2022/12/17 19:05:04;;;;;;;;;;;;;;;-2.05;100.00;101354.56;5550190;32;34078;-71
2022/12/17 19:08:12;;;;;;;;;;;;;;;-2.07;100.00;101345.97;5550188;32;34657;-71
2022/12/17 19:11:20;;;;;;;;;;;;;;;-2.20;100.00;101346.50;5550268;32;35015;-71
2022/12/17 19:14:27;;;;;;;;;;;;;;;-2.28;100.00;101358.97;5550373;32;34325;-71
2022/12/17 19:17:34;;;;;;;;;;;;;;;-2.23;100.00;101367.41;5549983;32;34953;-71
2022/12/17 19:20:41;;;;;;;;;;;;;;;-2.24;100.00;101376.13;5536729;32;34614;-71
2022/12/17 19:23:47;;;;;;;;;;;;;;;-2.35;100.00;101375.72;5535993;32;35509;-71
2022/12/17 19:26:57;;;;;;;;;;;;;;;-2.23;100.00;101376.97;5549937;32;34172;-71
2022/12/17 19:30:04;;;;;;;;;;;;;;;-2.34;100.00;101382.59;5549801;32;34865;-71
2022/12/17 19:33:14;;;;;;;;;;;;;;;-2.27;100.00;101386.63;5549772;32;34857;-72
2022/12/17 19:36:22;;;;;;;;;;;;;;;-2.34;100.00;101390.41;5549927;32;34331;-71
2022/12/17 19:39:33;;;;;;;;;;;;;;;-2.25;100.00;101395.22;5537336;32;35121;-71
2022/12/17 19:42:44;;;;;;;;;;;;;;;-2.21;100.00;101417.56;5552140;32;34924;-70
2022/12/17 19:45:51;;;;;;;;;;;;;;;-2.38;100.00;101417.41;5570918;32;34225;-70
2022/12/17 19:48:59;;;;;;;;;;;;;;;-2.50;100.00;101430.88;5557925;32;34190;-71
2022/12/17 19:52:06;;;;;;;;;;;;;;;-2.45;100.00;101428.09;5571913;32;34252;-71
2022/12/17 19:55:12;;;;;;;;;;;;;;;-2.36;100.00;101427.72;5571398;32;34041;-71
2022/12/17 19:58:19;;;;;;;;;;;;;;;-2.36;100.00;101430.31;5557764;32;35268;-71
2022/12/17 20:01:27;;;;;;;;;;;;;;;-2.41;100.00;101435.72;5571422;32;34913;-70
2022/12/17 20:04:36;;;;;;;;;;;;;;;-2.35;100.00;101439.81;5571444;32;34584;-70
2022/12/17 20:07:42;;;;;;;;;;;;;;;-2.27;100.00;101450.75;5571315;32;34890;-69
2022/12/17 20:10:49;;;;;;;;;;;;;;;-2.33;100.00;101451.88;5571398;32;34230;-71
2022/12/17 20:13:59;;;;;;;;;;;;;;;-2.28;100.00;101456.87;5534781;32;1163075;-72
2022/12/17 20:17:08;;;;;;;;;;;;;;;-2.27;100.00;101455.94;5571271;32;34859;-71
2022/12/17 20:20:15;;;;;;;;;;;;;;;-2.27;100.00;101454.19;5571419;32;34664;-71
2022/12/17 20:23:23;;;;;;;;;;;;;;;-2.31;100.00;101457.84;5571404;32;34240;-70
2022/12/17 20:26:30;;;;;;;;;;;;;;;-2.28;100.00;101470.72;5571173;32;34577;-71
2022/12/17 20:29:39;;;;;;;;;;;;;;;-2.30;100.00;101479.47;5571214;32;34978;-71
2022/12/17 20:32:46;;;;;;;;;;;;;;;-2.34;100.00;101486.56;5571437;32;34777;-71
2022/12/17 20:35:52;;;;;;;;;;;;;;;-2.40;100.00;101488.53;5571287;32;34699;-71
2022/12/17 20:38:58;;;;;;;;;;;;;;;-2.33;100.00;101487.41;5571159;31;34926;-71
2022/12/17 20:42:05;;;;;;;;;;;;;;;-2.38;100.00;101495.38;5571150;32;34191;-71
2022/12/17 20:45:11;;;;;;;;;;;;;;;-2.37;100.00;101507.44;5571014;32;34839;-71
2022/12/17 20:48:19;;;;;;;;;;;;;;;-2.35;100.00;101516.03;5571064;32;34850;-71
2022/12/17 20:51:27;;;;;;;;;;;;;;;-2.40;100.00;101511.91;5556604;32;34634;-71
2022/12/17 20:54:35;;;;;;;;;;;;;;;-2.38;100.00;101512.72;5570955;32;34222;-71
2022/12/17 20:57:41;;;;;;;;;;;;;;;-2.38;100.00;101517.91;5570635;32;35206;-70
2022/12/17 21:01:00;;;;;;;;;;;;;;;-2.38;100.00;101534.34;5570659;32;35024;-71
2022/12/17 21:04:10;;;;;;;;;;;;;;;-2.45;100.00;101534.63;5570954;32;34716;-70
2022/12/17 21:07:17;;;;;;;;;;;;;;;-2.48;100.00;101550.34;5557325;32;34552;-71
2022/12/17 21:10:22;;;;;;;;;;;;;;;-2.47;100.00;101559.81;5556930;32;33694;-70
2022/12/17 21:13:29;;;;;;;;;;;;;;;-2.57;100.00;101571.47;5570942;32;34170;-70
2022/12/17 21:16:35;;;;;;;;;;;;;;;-2.64;100.00;101579.47;5570947;32;34659;-71
2022/12/17 21:19:42;;;;;;;;;;;;;;;-2.58;100.00;101590.53;5570857;32;34386;-71
2022/12/17 21:22:46;;;;;;;;;;;;;;;-2.66;100.00;101598.59;5570811;32;34143;-70
2022/12/17 21:26:05;;;;;;;;;;;;;;;-2.72;100.00;101596.22;5570783;32;34302;-70
2022/12/17 21:29:14;;;;;;;;;;;;;;;-2.76;100.00;101598.06;5571080;32;34485;-70
2022/12/17 21:32:21;;;;;;;;;;;;;;;-2.81;100.00;101612.94;5544650;32;34829;-70
2022/12/17 21:35:34;;;;;;;;;;;;;;;-2.68;100.00;101613.41;5570757;32;34814;-70
2022/12/17 21:38:41;;;;;;;;;;;;;;;-2.80;100.00;101625.03;5570734;32;34164;-71
2022/12/17 21:43:00;;;;;;;;;;;;;;;-2.84;100.00;101623.47;5570481;32;34905;-70
2022/12/17 21:45:14;;;;;;;;;;;;;;;-2.72;100.00;101623.06;5570513;32;34635;-72
2022/12/17 21:48:18;;;;;;;;;;;;;;;-2.69;100.00;101628.12;5570717;32;34215;-71
2022/12/17 21:51:22;;;;;;;;;;;;;;;-2.75;100.00;101622.28;5570362;32;34962;-71
2022/12/17 21:54:27;;;;;;;;;;;;;;;-2.83;100.00;101630.34;5570603;32;34778;-71
2022/12/17 21:57:33;;;;;;;;;;;;;;;-2.77;100.00;101635.34;5570641;32;34307;-71
2022/12/17 22:00:40;;;;;;;;;;;;;;;-2.85;100.00;101637.34;5570807;32;35041;-72
2022/12/17 22:03:48;;;;;;;;;;;;;;;-2.85;100.00;101639.06;5555220;32;35590;-71
2022/12/17 22:06:57;;;;;;;;;;;;;;;-2.78;100.00;101641.44;5570470;32;34282;-71
2022/12/17 22:10:14;;;;;;;;;;;;;;;-2.70;100.00;101646.34;5556535;32;34342;-71
2022/12/17 22:17:10;;;;;;;;;;;;;;;-2.81;100.00;101646.72;5570605;32;34398;-71
2022/12/17 22:20:17;;;;;;;;;;;;;;;-2.73;100.00;101659.44;5570348;32;34956;-72
2022/12/17 22:23:23;;;;;;;;;;;;;;;-2.73;100.00;101675.03;5570391;32;34158;-71
2022/12/17 22:26:29;;;;;;;;;;;;;;;-2.80;100.00;101669.19;5570297;32;34923;-71
2022/12/17 22:33:01;;;;;;;;;;;;;;;-2.80;100.00;101676.12;5570048;32;34988;-72
2022/12/17 22:36:28;;;;;;;;;;;;;;;-2.77;100.00;101674.31;5570173;32;34966;-71
2022/12/17 22:39:53;;;;;;;;;;;;;;;-2.82;100.00;101689.19;5569932;31;34895;-71
2022/12/17 22:43:29;;;;;;;;;;;;;;;-2.86;100.00;101677.22;5569909;32;34640;-72
2022/12/17 22:46:54;;;;;;;;;;;;;;;-2.88;100.00;101691.13;5555929;32;34509;-72
2022/12/17 22:49:59;;;;;;;;;;;;;;;-2.83;100.00;101703.06;5555909;32;34459;-71
2022/12/17 22:53:04;;;;;;;;;;;;;;;-2.85;100.00;101701.41;5570106;32;34926;-71
2022/12/17 22:56:13;;;;;;;;;;;;;;;-2.90;100.00;101700.69;5569927;32;34125;-71
2022/12/17 22:59:39;;;;;;;;;;;;;;;-2.89;100.00;101711.03;5569930;32;34184;-71
2022/12/17 23:02:44;;;;;;;;;;;;;;;-3.01;100.00;101724.44;5555335;32;33104;-71
2022/12/17 23:05:47;;;;;;;;;;;;;;;-3.07;100.00;101729.81;5569633;32;34788;-71
2022/12/17 23:08:52;;;;;;;;;;;;;;;-3.12;100.00;101729.13;5556038;32;33939;-70
2022/12/17 23:12:49;;;;;;;;;;;;;;;-3.16;100.00;101730.97;5569735;32;34801;-71
2022/12/17 23:15:22;;;;;;;;;;;;;;;-2.95;100.00;101737.19;5569333;32;34809;-72
2022/12/17 23:18:26;;;;;;;;;;;;;;;-3.05;100.00;101751.41;5569580;32;34700;-71
2022/12/17 23:21:31;;;;;;;;;;;;;;;-3.02;100.00;101753.88;5569102;32;34312;-70
2022/12/17 23:24:34;;;;;;;;;;;;;;;-2.99;100.00;101747.72;5555867;32;34858;-70
2022/12/17 23:27:44;;;;;;;;;;;;;;;-3.00;100.00;101746.88;5569512;32;34300;-70
2022/12/17 23:30:49;;;;;;;;;;;;;;;-3.00;100.00;101746.06;5555300;32;34369;-70
2022/12/17 23:33:57;;;;;;;;;;;;;;;-3.07;100.00;101748.84;5569313;32;34414;-70
2022/12/17 23:37:02;;;;;;;;;;;;;;;-3.00;100.00;101759.03;5569212;32;34409;-70
2022/12/17 23:40:08;;;;;;;;;;;;;;;-3.07;100.00;101764.41;5555252;32;34362;-70
2022/12/17 23:43:13;;;;;;;;;;;;;;;-3.02;100.00;101766.00;5568920;32;34205;-71
2022/12/17 23:46:22;;;;;;;;;;;;;;;-3.09;100.00;101767.94;5569026;32;35052;-71
2022/12/17 23:49:28;;;;;;;;;;;;;;;-3.04;100.00;101776.44;5569028;32;34926;-70
2022/12/17 23:52:34;;;;;;;;;;;;;;;-3.05;100.00;101776.50;5568836;32;34009;-71
2022/12/17 23:55:40;;;;;;;;;;;;;;;-3.05;100.00;101777.34;5568902;32;34864;-72
2022/12/17 23:58:51;;;;;;;;;;;;;;;-2.99;100.00;101789.28;5568918;32;34559;-71
